createdAt,value
2019-04-13T00:00:02.238Z,4.70
2019-04-13T00:02:35.525Z,4.70
2019-04-13T00:05:10.449Z,4.70
2019-04-13T00:07:39.353Z,4.60
2019-04-13T00:10:07.888Z,4.60
2019-04-13T00:12:36.344Z,4.50
2019-04-13T00:15:06.975Z,4.50
2019-04-13T00:17:35.393Z,4.50
2019-04-13T00:20:04.898Z,4.50
2019-04-13T00:22:33.388Z,4.40
2019-04-13T00:25:01.822Z,4.40
2019-04-13T00:27:30.268Z,4.30
2019-04-13T00:29:58.689Z,4.40
2019-04-13T00:32:27.110Z,4.40
2019-04-13T00:34:55.553Z,4.40
2019-04-13T00:37:23.973Z,4.40
2019-04-13T00:39:52.391Z,4.40
2019-04-13T00:42:20.916Z,4.40
2019-04-13T00:44:49.336Z,4.30
2019-04-13T00:47:17.757Z,4.30
2019-04-13T00:49:46.216Z,4.30
2019-04-13T00:52:14.708Z,4.30
2019-04-13T00:54:43.140Z,4.20
2019-04-13T00:57:11.576Z,4.30
2019-04-13T00:59:40.002Z,4.20
2019-04-13T01:02:08.420Z,4.20
2019-04-13T01:04:36.894Z,4.20
2019-04-13T01:07:05.329Z,4.30
2019-04-13T01:09:33.739Z,4.30
2019-04-13T01:12:02.528Z,4.30
2019-04-13T01:14:31.016Z,4.30
2019-04-13T01:16:59.436Z,4.20
2019-04-13T01:19:27.903Z,4.10
2019-04-13T01:21:56.324Z,4.10
2019-04-13T01:24:24.753Z,4.10
2019-04-13T01:26:53.272Z,4.10
2019-04-13T01:29:21.696Z,4.10
2019-04-13T01:31:50.123Z,4.00
2019-04-13T01:34:18.560Z,4.00
2019-04-13T01:36:46.986Z,4.00
2019-04-13T01:39:15.407Z,4.00
2019-04-13T01:41:43.882Z,4.00
2019-04-13T01:44:12.306Z,4.10
2019-04-13T01:46:40.775Z,4.10
2019-04-13T01:49:09.254Z,4.10
2019-04-13T01:51:37.680Z,4.10
2019-04-13T01:54:06.100Z,4.10
2019-04-13T01:56:34.572Z,4.10
2019-04-13T01:59:02.993Z,4.10
2019-04-13T02:01:39.034Z,4.10
2019-04-13T02:04:25.757Z,4.00
2019-04-13T02:07:01.849Z,4.00
2019-04-13T02:09:48.408Z,4.00
2019-04-13T02:12:16.856Z,3.90
2019-04-13T02:14:45.280Z,3.90
2019-04-13T02:17:13.705Z,3.90
2019-04-13T02:19:42.176Z,4.00
2019-04-13T02:22:10.600Z,4.00
2019-04-13T02:24:39.028Z,4.00
2019-04-13T02:27:07.484Z,4.10
2019-04-13T02:29:35.904Z,4.00
2019-04-13T02:32:04.368Z,3.90
2019-04-13T02:34:32.880Z,3.70
2019-04-13T02:37:01.522Z,3.80
2019-04-13T02:39:30.033Z,3.70
2019-04-13T02:41:58.484Z,3.70
2019-04-13T02:44:27.077Z,3.70
2019-04-13T02:46:55.505Z,3.70
2019-04-13T02:49:23.961Z,3.70
2019-04-13T02:51:52.393Z,3.50
2019-04-13T02:54:20.900Z,3.50
2019-04-13T02:56:49.413Z,3.50
2019-04-13T02:59:17.835Z,3.50
2019-04-13T03:01:46.265Z,3.50
2019-04-13T03:04:14.792Z,3.50
2019-04-13T03:06:43.286Z,3.50
2019-04-13T03:09:11.709Z,3.40
2019-04-13T03:11:40.153Z,3.40
2019-04-13T03:14:08.621Z,3.40
2019-04-13T03:16:41.392Z,3.30
2019-04-13T03:19:11.508Z,3.30
2019-04-13T03:21:40.004Z,3.30
2019-04-13T03:24:09.187Z,3.20
2019-04-13T03:26:37.998Z,3.30
2019-04-13T03:29:06.465Z,3.30
2019-04-13T03:31:35.104Z,3.20
2019-04-13T03:34:03.619Z,3.20
2019-04-13T03:36:32.036Z,3.20
2019-04-13T03:39:00.465Z,3.10
2019-04-13T03:41:28.977Z,3.10
2019-04-13T03:43:57.396Z,3.20
2019-04-13T03:46:25.845Z,3.10
2019-04-13T03:48:54.356Z,3.10
2019-04-13T03:51:22.778Z,3.10
2019-04-13T03:53:51.200Z,3.20
2019-04-13T03:56:19.671Z,3.20
2019-04-13T03:58:48.167Z,3.20
2019-04-13T04:01:16.588Z,3.10
2019-04-13T04:03:45.061Z,3.10
2019-04-13T04:06:13.479Z,3.00
2019-04-13T04:08:41.904Z,3.00
2019-04-13T04:11:10.348Z,2.90
2019-04-13T04:13:38.776Z,3.00
2019-04-13T04:16:07.288Z,3.00
2019-04-13T04:18:35.788Z,2.90
2019-04-13T04:21:05.233Z,2.90
2019-04-13T04:23:33.664Z,3.00
2019-04-13T04:26:02.108Z,2.90
2019-04-13T04:28:30.535Z,2.90
2019-04-13T04:30:58.953Z,3.00
2019-04-13T04:33:27.421Z,3.00
2019-04-13T04:35:55.852Z,2.90
2019-04-13T04:38:24.280Z,3.00
2019-04-13T04:40:52.753Z,2.90
2019-04-13T04:43:21.180Z,2.90
2019-04-13T04:45:49.604Z,3.00
2019-04-13T04:48:18.040Z,2.70
2019-04-13T04:50:46.456Z,2.90
2019-04-13T04:53:14.885Z,3.30
2019-04-13T04:55:43.368Z,2.90
2019-04-13T04:58:11.868Z,2.80
2019-04-13T05:00:40.289Z,2.80
2019-04-13T05:03:08.782Z,2.80
2019-04-13T05:05:37.238Z,2.80
2019-04-13T05:08:11.751Z,2.70
2019-04-13T05:10:35.827Z,2.80
2019-04-13T05:13:04.320Z,2.80
2019-04-13T05:15:32.748Z,2.80
2019-04-13T05:18:01.220Z,2.80
2019-04-13T05:20:29.657Z,2.80
2019-04-13T05:22:58.074Z,2.80
2019-04-13T05:25:26.529Z,2.90
2019-04-13T05:27:54.956Z,2.90
2019-04-13T05:30:23.448Z,2.90
2019-04-13T05:32:51.900Z,3.10
2019-04-13T05:35:20.400Z,3.00
2019-04-13T05:37:48.820Z,3.10
2019-04-13T05:40:17.277Z,3.10
2019-04-13T05:42:45.712Z,3.20
2019-04-13T05:45:14.131Z,3.10
2019-04-13T05:47:44.957Z,3.10
2019-04-13T05:50:13.552Z,3.20
2019-04-13T05:52:41.981Z,3.20
2019-04-13T05:55:10.569Z,3.30
2019-04-13T05:57:39.079Z,3.30
2019-04-13T06:00:09.188Z,3.20
2019-04-13T06:02:37.651Z,3.20
2019-04-13T06:05:07.781Z,3.20
2019-04-13T06:07:36.493Z,3.30
2019-04-13T06:10:07.537Z,3.20
2019-04-13T06:12:36.078Z,3.30
2019-04-13T06:15:06.735Z,3.40
2019-04-13T06:17:35.187Z,3.40
2019-04-13T06:20:07.695Z,3.40
2019-04-13T06:22:36.187Z,3.30
2019-04-13T06:25:09.728Z,3.30
2019-04-13T06:27:36.214Z,3.20
2019-04-13T06:30:07.837Z,3.30
2019-04-13T06:32:40.621Z,3.40
2019-04-13T06:35:13.464Z,3.30
2019-04-13T06:37:41.888Z,3.40
2019-04-13T06:40:11.202Z,3.40
2019-04-13T06:42:39.626Z,3.70
2019-04-13T06:45:08.384Z,4.00
2019-04-13T06:47:36.867Z,4.20
2019-04-13T06:50:06.470Z,4.20
2019-04-13T06:52:36.140Z,4.20
2019-04-13T06:55:07.169Z,4.20
2019-04-13T06:57:35.901Z,4.20
2019-04-13T07:00:06.905Z,4.30
2019-04-13T07:02:35.540Z,4.40
2019-04-13T07:05:27.900Z,4.40
2019-04-13T07:08:07.506Z,4.60
2019-04-13T07:10:44.341Z,4.80
2019-04-13T07:13:21.171Z,4.60
2019-04-13T07:15:54.417Z,4.40
2019-04-13T07:18:22.840Z,4.40
2019-04-13T07:20:52.190Z,4.40
2019-04-13T07:23:25.147Z,4.30
2019-04-13T07:25:51.027Z,4.10
2019-04-13T07:28:19.481Z,4.00
2019-04-13T07:30:48.982Z,4.00
2019-04-13T07:33:18.047Z,3.90
2019-04-13T07:35:46.719Z,3.90
2019-04-13T07:38:15.669Z,3.90
2019-04-13T07:40:44.766Z,4.00
2019-04-13T07:43:13.212Z,4.10
2019-04-13T07:45:59.848Z,4.20
2019-04-13T07:48:46.146Z,4.20
2019-04-13T07:51:34.639Z,4.20
2019-04-13T07:54:04.379Z,4.30
2019-04-13T07:56:33.404Z,4.40
2019-04-13T07:59:01.900Z,4.40
2019-04-13T08:01:30.487Z,4.50
2019-04-13T08:03:58.948Z,4.60
2019-04-13T08:06:27.429Z,4.80
2019-04-13T08:08:55.876Z,4.90
2019-04-13T08:11:24.301Z,4.90
2019-04-13T08:13:53.720Z,4.80
2019-04-13T08:16:24.801Z,4.90
2019-04-13T08:19:12.270Z,5.10
2019-04-13T08:21:41.172Z,5.20
2019-04-13T08:24:09.588Z,5.20
2019-04-13T08:26:38.111Z,5.30
2019-04-13T08:29:06.580Z,5.30
2019-04-13T08:31:35.427Z,5.20
2019-04-13T08:34:03.985Z,5.20
2019-04-13T08:36:32.516Z,5.30
2019-04-13T08:39:00.940Z,5.30
2019-04-13T08:41:29.436Z,5.40
2019-04-13T08:43:57.942Z,5.60
2019-04-13T08:46:28.101Z,5.30
2019-04-13T08:48:56.678Z,5.20
2019-04-13T08:51:25.117Z,5.30
2019-04-13T08:53:53.544Z,5.50
2019-04-13T08:56:22.017Z,5.50
2019-04-13T08:58:50.461Z,5.30
2019-04-13T09:01:22.044Z,5.50
2019-04-13T09:03:50.533Z,5.70
2019-04-13T09:06:18.986Z,5.90
2019-04-13T09:08:47.420Z,5.90
2019-04-13T09:11:18.788Z,5.90
2019-04-13T09:13:46.016Z,6.10
2019-04-13T09:16:14.979Z,6.30
2019-04-13T09:18:46.226Z,6.60
2019-04-13T09:21:16.719Z,6.60
2019-04-13T09:23:48.002Z,7.00
2019-04-13T09:26:15.357Z,7.40
2019-04-13T09:28:44.071Z,7.60
2019-04-13T09:31:12.636Z,8.10
2019-04-13T09:33:43.977Z,8.20
2019-04-13T09:36:11.305Z,8.40
2019-04-13T09:38:42.625Z,8.50
2019-04-13T09:41:09.893Z,8.50
2019-04-13T09:43:42.684Z,8.30
2019-04-13T09:46:11.210Z,8.20
2019-04-13T09:48:39.660Z,8.10
2019-04-13T09:51:08.148Z,8.10
2019-04-13T09:53:36.618Z,7.80
2019-04-13T09:56:05.184Z,7.90
2019-04-13T09:58:35.367Z,8.00
2019-04-13T10:01:03.948Z,8.10
2019-04-13T10:03:32.381Z,8.20
2019-04-13T10:06:00.833Z,8.50
2019-04-13T10:08:29.260Z,8.50
2019-04-13T10:10:57.958Z,8.50
2019-04-13T10:13:38.474Z,8.70
2019-04-13T10:16:26.926Z,8.60
2019-04-13T10:18:58.094Z,8.80
2019-04-13T10:21:27.271Z,8.70
2019-04-13T10:23:55.720Z,8.80
2019-04-13T10:26:24.164Z,8.10
2019-04-13T10:28:52.602Z,8.10
2019-04-13T10:31:21.048Z,8.20
2019-04-13T10:33:49.562Z,8.30
2019-04-13T10:36:18.008Z,8.60
2019-04-13T10:38:46.432Z,8.40
2019-04-13T10:41:14.855Z,7.90
2019-04-13T10:43:43.384Z,8.10
2019-04-13T10:46:28.592Z,8.40
2019-04-13T10:49:01.412Z,8.40
2019-04-13T10:51:37.614Z,8.40
2019-04-13T10:54:06.144Z,8.50
2019-04-13T10:56:34.625Z,8.00
2019-04-13T10:59:03.113Z,7.70
2019-04-13T11:01:31.549Z,7.50
2019-04-13T11:03:59.976Z,7.90
2019-04-13T11:06:28.418Z,7.50
2019-04-13T11:08:56.844Z,7.40
2019-04-13T11:11:25.293Z,7.60
2019-04-13T11:13:53.796Z,8.00
2019-04-13T11:16:22.224Z,8.10
2019-04-13T11:18:50.673Z,8.40
2019-04-13T11:21:19.176Z,8.60
2019-04-13T11:23:47.649Z,8.80
2019-04-13T11:26:16.088Z,9.10
2019-04-13T11:28:44.516Z,9.20
2019-04-13T11:31:12.995Z,9.50
2019-04-13T11:33:42.789Z,10.10
2019-04-13T11:36:11.417Z,10.60
2019-04-13T11:38:39.844Z,9.70
2019-04-13T11:41:12.395Z,9.50
2019-04-13T11:43:42.538Z,9.10
2019-04-13T11:46:15.572Z,8.90
2019-04-13T11:48:45.645Z,9.10
2019-04-13T11:51:20.874Z,9.40
2019-04-13T11:53:48.871Z,9.60
2019-04-13T11:56:17.364Z,10.00
2019-04-13T11:58:45.788Z,10.20
2019-04-13T12:01:15.953Z,10.00
2019-04-13T12:03:46.083Z,9.70
2019-04-13T12:06:19.100Z,9.50
2019-04-13T12:08:59.257Z,9.80
2019-04-13T12:11:45.169Z,9.50
2019-04-13T12:14:31.985Z,9.10
2019-04-13T12:17:19.792Z,9.10
2019-04-13T12:19:58.924Z,8.50
2019-04-13T12:22:29.009Z,8.90
2019-04-13T12:24:57.432Z,9.30
2019-04-13T12:27:25.883Z,9.00
2019-04-13T12:29:55.053Z,9.10
2019-04-13T12:32:25.286Z,9.30
2019-04-13T12:34:53.792Z,9.30
2019-04-13T12:37:22.216Z,9.30
2019-04-13T12:40:02.281Z,9.20
2019-04-13T12:42:22.559Z,9.20
2019-04-13T12:44:51.061Z,9.20
2019-04-13T12:47:21.069Z,9.20
2019-04-13T12:49:49.557Z,9.20
2019-04-13T12:52:18.045Z,9.30
2019-04-13T12:54:46.544Z,9.40
2019-04-13T12:57:16.142Z,9.30
2019-04-13T12:59:44.997Z,9.20
2019-04-13T13:02:23.752Z,9.10
2019-04-13T13:05:02.893Z,9.10
2019-04-13T13:07:31.340Z,9.00
2019-04-13T13:09:59.804Z,8.80
2019-04-13T13:12:28.229Z,8.70
2019-04-13T13:14:56.665Z,8.50
2019-04-13T13:17:26.100Z,8.40
2019-04-13T13:19:54.637Z,8.30
2019-04-13T13:22:23.080Z,8.30
2019-04-13T13:24:51.504Z,8.20
2019-04-13T13:27:19.936Z,8.10
2019-04-13T13:29:48.384Z,8.20
2019-04-13T13:32:17.592Z,8.20
2019-04-13T13:34:46.741Z,8.20
2019-04-13T13:37:15.173Z,8.20
2019-04-13T13:39:45.152Z,8.00
2019-04-13T13:42:14.199Z,7.90
2019-04-13T13:44:42.690Z,7.80
2019-04-13T13:47:11.150Z,7.80
2019-04-13T13:49:39.855Z,7.80
2019-04-13T13:52:08.576Z,7.70
2019-04-13T13:54:37.654Z,7.70
2019-04-13T13:57:06.293Z,7.70
2019-04-13T13:59:34.839Z,7.70
2019-04-13T14:02:06.536Z,7.60
2019-04-13T14:04:35.007Z,7.60
2019-04-13T14:07:03.500Z,7.50
2019-04-13T14:09:32.361Z,7.60
2019-04-13T14:12:00.806Z,7.70
2019-04-13T14:14:29.257Z,7.60
2019-04-13T14:16:57.812Z,7.60
2019-04-13T14:19:27.710Z,7.70
2019-04-13T14:21:56.472Z,7.50
2019-04-13T14:24:24.916Z,7.30
2019-04-13T14:26:53.429Z,7.00
2019-04-13T14:29:21.858Z,7.00
2019-04-13T14:31:50.348Z,6.90
2019-04-13T14:34:18.831Z,6.70
2019-04-13T14:36:47.296Z,6.60
2019-04-13T14:39:15.716Z,6.60
2019-04-13T14:41:44.156Z,6.60
2019-04-13T14:44:12.601Z,6.70
2019-04-13T14:46:41.485Z,6.70
2019-04-13T14:49:10.095Z,6.70
2019-04-13T14:51:38.949Z,6.90
2019-04-13T14:54:07.838Z,6.90
2019-04-13T14:56:36.523Z,7.00
2019-04-13T14:59:05.052Z,7.10
2019-04-13T15:01:33.996Z,7.30
2019-04-13T15:04:03.910Z,7.30
2019-04-13T15:06:32.826Z,7.40
2019-04-13T15:09:01.691Z,7.40
2019-04-13T15:11:30.261Z,7.40
2019-04-13T15:13:59.886Z,7.20
2019-04-13T15:16:29.484Z,7.30
2019-04-13T15:19:04.631Z,7.40
2019-04-13T15:21:33.199Z,7.50
2019-04-13T15:24:00.133Z,7.40
2019-04-13T15:26:29.775Z,7.50
2019-04-13T15:28:58.459Z,7.30
2019-04-13T15:31:30.591Z,7.20
2019-04-13T15:33:59.436Z,7.30
2019-04-13T15:36:30.653Z,7.30
2019-04-13T15:39:01.544Z,7.50
2019-04-13T15:41:36.335Z,7.50
2019-04-13T15:43:58.239Z,7.50
2019-04-13T15:46:28.604Z,7.50
2019-04-13T15:48:58.158Z,7.40
2019-04-13T15:51:27.986Z,7.20
2019-04-13T15:53:57.375Z,7.20
2019-04-13T15:56:25.970Z,7.20
2019-04-13T15:58:55.782Z,7.30
2019-04-13T16:01:24.460Z,7.30
2019-04-13T16:03:53.200Z,7.30
2019-04-13T16:06:21.803Z,7.30
2019-04-13T16:08:51.869Z,7.20
2019-04-13T16:11:46.352Z,7.20
2019-04-13T16:14:08.204Z,7.00
2019-04-13T16:16:37.343Z,6.60
2019-04-13T16:19:07.091Z,6.40
2019-04-13T16:21:36.580Z,6.20
2019-04-13T16:24:05.267Z,6.20
2019-04-13T16:26:33.941Z,6.40
2019-04-13T16:29:20.738Z,6.50
2019-04-13T16:32:06.227Z,6.50
2019-04-13T16:34:40.712Z,6.50
2019-04-13T16:37:14.218Z,6.30
2019-04-13T16:39:43.452Z,6.20
2019-04-13T16:42:19.935Z,6.20
2019-04-13T16:44:53.954Z,6.30
2019-04-13T16:47:33.666Z,6.30
2019-04-13T16:50:21.637Z,6.10
2019-04-13T16:53:01.606Z,6.10
2019-04-13T16:55:49.425Z,6.00
2019-04-13T16:58:19.812Z,6.00
2019-04-13T17:00:56.083Z,5.90
2019-04-13T17:03:35.794Z,5.80
2019-04-13T17:06:06.909Z,5.80
2019-04-13T17:08:36.862Z,5.70
2019-04-13T17:11:06.937Z,5.70
2019-04-13T17:13:36.810Z,5.70
2019-04-13T17:16:05.696Z,5.60
2019-04-13T17:18:42.457Z,5.60
2019-04-13T17:21:12.878Z,5.60
2019-04-13T17:23:58.533Z,5.50
2019-04-13T17:26:31.601Z,5.50
2019-04-13T17:29:02.441Z,5.50
2019-04-13T17:31:49.510Z,5.50
2019-04-13T17:34:34.158Z,5.50
2019-04-13T17:37:05.246Z,5.40
2019-04-13T17:39:34.110Z,5.30
2019-04-13T17:42:07.710Z,5.40
2019-04-13T17:44:39.509Z,5.30
2019-04-13T17:47:12.965Z,5.30
2019-04-13T17:49:59.980Z,5.30
2019-04-13T17:52:30.334Z,5.30
2019-04-13T17:55:04.741Z,5.30
2019-04-13T17:57:41.543Z,5.20
2019-04-13T18:00:18.170Z,5.20
2019-04-13T18:02:51.165Z,5.20
2019-04-13T18:05:38.021Z,5.10
2019-04-13T18:08:11.615Z,5.10
2019-04-13T18:10:48.454Z,5.10
2019-04-13T18:13:24.815Z,5.00
2019-04-13T18:15:55.438Z,5.00
2019-04-13T18:18:26.717Z,4.90
2019-04-13T18:20:57.125Z,4.90
2019-04-13T18:23:27.464Z,4.90
2019-04-13T18:25:57.949Z,4.80
2019-04-13T18:28:27.283Z,4.80
2019-04-13T18:30:56.259Z,4.80
2019-04-13T18:33:26.119Z,4.70
2019-04-13T18:35:56.215Z,4.70
2019-04-13T18:38:25.279Z,4.60
2019-04-13T18:40:54.070Z,4.60
2019-04-13T18:43:27.917Z,4.60
2019-04-13T18:45:53.794Z,4.60
2019-04-13T18:48:22.915Z,4.50
2019-04-13T18:50:51.945Z,4.50
2019-04-13T18:53:21.262Z,4.50
2019-04-13T18:55:50.274Z,4.50
2019-04-13T18:58:19.265Z,4.40
2019-04-13T19:00:49.153Z,4.40
2019-04-13T19:03:19.429Z,4.40
2019-04-13T19:05:48.535Z,4.40
2019-04-13T19:08:17.590Z,4.40
2019-04-13T19:10:46.479Z,4.40
2019-04-13T19:13:15.371Z,4.40
2019-04-13T19:15:44.367Z,4.40
2019-04-13T19:18:13.167Z,4.40
2019-04-13T19:20:41.965Z,4.30
2019-04-13T19:23:10.827Z,4.30
2019-04-13T19:25:39.647Z,4.30
2019-04-13T19:28:08.408Z,4.30
2019-04-13T19:30:38.317Z,4.30
2019-04-13T19:33:07.207Z,4.30
2019-04-13T19:35:36.018Z,4.20
2019-04-13T19:38:04.984Z,4.20
2019-04-13T19:40:33.874Z,4.20
2019-04-13T19:43:02.764Z,4.20
2019-04-13T19:45:31.654Z,4.20
2019-04-13T19:48:00.454Z,4.20
2019-04-13T19:50:29.332Z,4.20
2019-04-13T19:53:16.143Z,4.20
2019-04-13T19:55:45.031Z,4.20
2019-04-13T19:58:13.924Z,4.20
2019-04-13T20:00:44.347Z,4.10
2019-04-13T20:03:13.365Z,4.10
2019-04-13T20:05:42.332Z,4.10
2019-04-13T20:08:11.130Z,4.10
2019-04-13T20:10:39.913Z,4.10
2019-04-13T20:13:08.700Z,4.10
2019-04-13T20:15:37.731Z,4.10
2019-04-13T20:18:06.579Z,4.10
2019-04-13T20:20:35.364Z,4.00
2019-04-13T20:23:04.051Z,4.00
2019-04-13T20:25:33.871Z,4.00
2019-04-13T20:28:03.058Z,4.00
2019-04-13T20:30:32.646Z,4.00
2019-04-13T20:33:02.407Z,4.00
2019-04-13T20:35:32.251Z,4.00
2019-04-13T20:38:01.969Z,4.00
2019-04-13T20:40:35.949Z,4.00
2019-04-13T20:43:05.468Z,4.00
2019-04-13T20:45:34.116Z,4.00
2019-04-13T20:48:04.060Z,4.00
2019-04-13T20:50:33.802Z,4.00
2019-04-13T20:53:02.645Z,4.00
2019-04-13T20:55:31.191Z,4.00
2019-04-13T20:58:00.837Z,4.00
2019-04-13T21:00:29.797Z,4.00
2019-04-13T21:02:59.042Z,3.90
2019-04-13T21:05:27.692Z,3.90
2019-04-13T21:07:56.140Z,3.90
2019-04-13T21:10:24.600Z,3.90
2019-04-13T21:12:53.033Z,3.90
2019-04-13T21:15:21.492Z,3.90
2019-04-13T21:17:51.116Z,3.90
2019-04-13T21:20:20.679Z,3.90
2019-04-13T21:22:50.614Z,3.90
2019-04-13T21:25:19.202Z,3.80
2019-04-13T21:27:48.766Z,3.80
2019-04-13T21:30:18.558Z,3.80
2019-04-13T21:32:47.105Z,3.80
2019-04-13T21:35:16.476Z,3.80
2019-04-13T21:37:45.168Z,3.70
2019-04-13T21:40:14.509Z,3.80
2019-04-13T21:42:43.137Z,3.80
2019-04-13T21:45:12.510Z,3.80
2019-04-13T21:47:41.040Z,3.80
2019-04-13T21:50:28.273Z,3.70
2019-04-13T21:52:58.583Z,3.70
2019-04-13T21:55:37.892Z,3.70
2019-04-13T21:58:07.659Z,3.70
2019-04-13T22:01:06.080Z,3.60
2019-04-13T22:03:34.809Z,3.60
2019-04-13T22:06:03.984Z,3.50
2019-04-13T22:08:33.749Z,3.50
2019-04-13T22:11:03.762Z,3.50
2019-04-13T22:13:40.918Z,3.40
2019-04-13T22:16:10.096Z,3.40
2019-04-13T22:18:38.717Z,3.30
2019-04-13T22:21:07.191Z,3.30
2019-04-13T22:23:36.741Z,3.30
2019-04-13T22:26:06.645Z,3.30
2019-04-13T22:28:36.992Z,3.20
2019-04-13T22:31:24.210Z,3.20
2019-04-13T22:33:54.505Z,3.20
2019-04-13T22:36:28.971Z,3.10
2019-04-13T22:38:58.665Z,3.20
2019-04-13T22:41:27.355Z,3.20
2019-04-13T22:43:56.716Z,3.20
2019-04-13T22:46:26.078Z,3.10
2019-04-13T22:49:02.104Z,3.10
2019-04-13T22:51:49.008Z,3.10
2019-04-13T22:54:19.200Z,3.00
2019-04-13T22:57:06.199Z,3.00
2019-04-13T22:59:35.603Z,3.00
2019-04-13T23:02:06.108Z,3.00
2019-04-13T23:04:34.652Z,2.90
2019-04-13T23:07:04.270Z,2.90
2019-04-13T23:09:32.923Z,2.90
2019-04-13T23:12:01.408Z,2.80
2019-04-13T23:14:30.808Z,2.70
2019-04-13T23:17:00.458Z,2.60
2019-04-13T23:19:28.984Z,2.50
2019-04-13T23:21:57.428Z,2.50
2019-04-13T23:24:28.976Z,2.40
2019-04-13T23:26:56.009Z,2.40
2019-04-13T23:29:25.651Z,2.30
2019-04-13T23:31:54.365Z,2.10
2019-04-13T23:34:23.001Z,2.10
2019-04-13T23:36:51.508Z,2.10
2019-04-13T23:39:19.944Z,2.10
2019-04-13T23:41:49.422Z,2.20
2019-04-13T23:44:18.113Z,2.20
2019-04-13T23:46:46.745Z,2.10
2019-04-13T23:49:15.167Z,2.10
2019-04-13T23:51:44.639Z,2.10
2019-04-13T23:54:13.230Z,2.10
2019-04-13T23:56:43.458Z,2.10
2019-04-13T23:59:26.417Z,2.20
